sensor_id;sensor_type;location;lat;lon;timestamp;P1;durP1;ratioP1;P2;durP2;ratioP2
67941;SDS011;54731;42.600;23.476;2023-04-25T00:01:02;4.27;;;2.77;;
67941;SDS011;54731;42.600;23.476;2023-04-25T00:03:28;15.63;;;14.32;;
67941;SDS011;54731;42.600;23.476;2023-04-25T00:05:53;5.87;;;5.07;;
67941;SDS011;54731;42.600;23.476;2023-04-25T00:08:18;6.93;;;4.10;;
67941;SDS011;54731;42.600;23.476;2023-04-25T00:10:44;5.55;;;4.30;;
67941;SDS011;54731;42.600;23.476;2023-04-25T00:13:09;7.55;;;5.20;;
67941;SDS011;54731;42.600;23.476;2023-04-25T00:15:34;5.33;;;4.07;;
67941;SDS011;54731;42.600;23.476;2023-04-25T00:18:00;8.00;;;4.33;;
67941;SDS011;54731;42.600;23.476;2023-04-25T00:20:25;6.40;;;4.67;;
67941;SDS011;54731;42.600;23.476;2023-04-25T00:22:50;6.67;;;4.63;;
67941;SDS011;54731;42.600;23.476;2023-04-25T00:25:16;8.20;;;4.87;;
67941;SDS011;54731;42.600;23.476;2023-04-25T00:27:41;6.87;;;5.53;;
67941;SDS011;54731;42.600;23.476;2023-04-25T00:30:06;8.73;;;5.27;;
67941;SDS011;54731;42.600;23.476;2023-04-25T00:32:32;7.50;;;4.63;;
67941;SDS011;54731;42.600;23.476;2023-04-25T00:34:58;8.20;;;4.77;;
67941;SDS011;54731;42.600;23.476;2023-04-25T00:37:23;7.68;;;5.38;;
67941;SDS011;54731;42.600;23.476;2023-04-25T00:39:48;6.20;;;5.28;;
67941;SDS011;54731;42.600;23.476;2023-04-25T00:42:13;8.77;;;6.70;;
67941;SDS011;54731;42.600;23.476;2023-04-25T00:44:40;7.95;;;6.78;;
67941;SDS011;54731;42.600;23.476;2023-04-25T00:47:05;29.45;;;16.58;;
67941;SDS011;54731;42.600;23.476;2023-04-25T00:49:32;8.60;;;6.32;;
67941;SDS011;54731;42.600;23.476;2023-04-25T00:51:57;9.53;;;6.13;;
67941;SDS011;54731;42.600;23.476;2023-04-25T00:54:22;5.53;;;4.93;;
67941;SDS011;54731;42.600;23.476;2023-04-25T00:56:48;6.40;;;5.13;;
67941;SDS011;54731;42.600;23.476;2023-04-25T00:59:14;5.65;;;4.70;;
67941;SDS011;54731;42.600;23.476;2023-04-25T01:01:40;6.57;;;5.10;;
67941;SDS011;54731;42.600;23.476;2023-04-25T01:04:06;7.55;;;5.38;;
67941;SDS011;54731;42.600;23.476;2023-04-25T01:06:31;5.90;;;4.88;;
67941;SDS011;54731;42.600;23.476;2023-04-25T01:08:57;6.00;;;5.40;;
67941;SDS011;54731;42.600;23.476;2023-04-25T01:11:22;4.60;;;4.10;;
67941;SDS011;54731;42.600;23.476;2023-04-25T01:13:48;6.53;;;4.47;;
67941;SDS011;54731;42.600;23.476;2023-04-25T01:16:13;6.60;;;5.37;;
67941;SDS011;54731;42.600;23.476;2023-04-25T01:18:38;5.17;;;4.23;;
67941;SDS011;54731;42.600;23.476;2023-04-25T01:21:09;5.53;;;4.75;;
67941;SDS011;54731;42.600;23.476;2023-04-25T01:23:36;5.35;;;4.50;;
67941;SDS011;54731;42.600;23.476;2023-04-25T01:26:08;6.13;;;4.90;;
67941;SDS011;54731;42.600;23.476;2023-04-25T01:28:35;5.35;;;4.80;;
67941;SDS011;54731;42.600;23.476;2023-04-25T01:31:01;5.77;;;4.90;;
67941;SDS011;54731;42.600;23.476;2023-04-25T01:33:26;8.18;;;5.82;;
67941;SDS011;54731;42.600;23.476;2023-04-25T01:35:52;5.90;;;5.17;;
67941;SDS011;54731;42.600;23.476;2023-04-25T01:38:17;5.67;;;4.80;;
67941;SDS011;54731;42.600;23.476;2023-04-25T01:40:42;6.00;;;4.70;;
67941;SDS011;54731;42.600;23.476;2023-04-25T01:43:10;6.90;;;5.47;;
67941;SDS011;54731;42.600;23.476;2023-04-25T01:45:35;7.50;;;6.20;;
67941;SDS011;54731;42.600;23.476;2023-04-25T01:48:02;8.90;;;6.20;;
67941;SDS011;54731;42.600;23.476;2023-04-25T01:50:27;4.85;;;4.05;;
67941;SDS011;54731;42.600;23.476;2023-04-25T01:52:53;4.97;;;3.60;;
67941;SDS011;54731;42.600;23.476;2023-04-25T01:55:19;4.38;;;3.55;;
67941;SDS011;54731;42.600;23.476;2023-04-25T01:57:44;3.67;;;3.00;;
67941;SDS011;54731;42.600;23.476;2023-04-25T02:00:10;4.07;;;3.27;;
67941;SDS011;54731;42.600;23.476;2023-04-25T02:02:35;5.32;;;3.03;;
67941;SDS011;54731;42.600;23.476;2023-04-25T02:05:01;5.60;;;3.37;;
67941;SDS011;54731;42.600;23.476;2023-04-25T02:07:26;3.37;;;2.97;;
67941;SDS011;54731;42.600;23.476;2023-04-25T02:09:51;9.77;;;5.40;;
67941;SDS011;54731;42.600;23.476;2023-04-25T02:12:17;4.00;;;3.37;;
67941;SDS011;54731;42.600;23.476;2023-04-25T02:14:42;4.97;;;2.77;;
67941;SDS011;54731;42.600;23.476;2023-04-25T02:17:07;3.93;;;3.53;;
67941;SDS011;54731;42.600;23.476;2023-04-25T02:19:33;6.00;;;5.05;;
67941;SDS011;54731;42.600;23.476;2023-04-25T02:21:58;8.40;;;5.37;;
67941;SDS011;54731;42.600;23.476;2023-04-25T02:24:23;7.23;;;5.10;;
67941;SDS011;54731;42.600;23.476;2023-04-25T02:26:49;8.23;;;4.43;;
67941;SDS011;54731;42.600;23.476;2023-04-25T02:29:14;7.37;;;4.17;;
67941;SDS011;54731;42.600;23.476;2023-04-25T02:31:40;5.70;;;4.70;;
67941;SDS011;54731;42.600;23.476;2023-04-25T02:34:05;7.03;;;4.67;;
67941;SDS011;54731;42.600;23.476;2023-04-25T02:36:31;6.53;;;4.77;;
67941;SDS011;54731;42.600;23.476;2023-04-25T02:38:56;8.83;;;6.07;;
67941;SDS011;54731;42.600;23.476;2023-04-25T02:41:21;10.73;;;7.90;;
67941;SDS011;54731;42.600;23.476;2023-04-25T02:43:47;9.70;;;7.63;;
67941;SDS011;54731;42.600;23.476;2023-04-25T02:46:12;10.13;;;6.57;;
67941;SDS011;54731;42.600;23.476;2023-04-25T02:48:37;5.70;;;4.63;;
67941;SDS011;54731;42.600;23.476;2023-04-25T02:51:02;5.67;;;4.33;;
67941;SDS011;54731;42.600;23.476;2023-04-25T02:53:28;7.10;;;4.80;;
67941;SDS011;54731;42.600;23.476;2023-04-25T02:55:53;6.93;;;4.83;;
67941;SDS011;54731;42.600;23.476;2023-04-25T02:58:18;6.37;;;5.10;;
67941;SDS011;54731;42.600;23.476;2023-04-25T03:00:44;9.07;;;6.03;;
67941;SDS011;54731;42.600;23.476;2023-04-25T03:03:09;9.67;;;6.07;;
67941;SDS011;54731;42.600;23.476;2023-04-25T03:05:34;7.37;;;5.67;;
67941;SDS011;54731;42.600;23.476;2023-04-25T03:08:00;9.43;;;6.22;;
67941;SDS011;54731;42.600;23.476;2023-04-25T03:10:25;6.68;;;5.65;;
67941;SDS011;54731;42.600;23.476;2023-04-25T03:12:51;8.30;;;5.53;;
67941;SDS011;54731;42.600;23.476;2023-04-25T03:15:16;6.83;;;5.40;;
67941;SDS011;54731;42.600;23.476;2023-04-25T03:17:42;7.40;;;5.90;;
67941;SDS011;54731;42.600;23.476;2023-04-25T03:20:07;6.82;;;6.10;;
67941;SDS011;54731;42.600;23.476;2023-04-25T03:22:33;7.57;;;6.10;;
67941;SDS011;54731;42.600;23.476;2023-04-25T03:24:58;7.53;;;5.78;;
67941;SDS011;54731;42.600;23.476;2023-04-25T03:27:24;7.63;;;5.97;;
67941;SDS011;54731;42.600;23.476;2023-04-25T03:29:49;7.57;;;6.13;;
67941;SDS011;54731;42.600;23.476;2023-04-25T03:32:14;6.77;;;6.07;;
67941;SDS011;54731;42.600;23.476;2023-04-25T03:34:40;9.53;;;6.13;;
67941;SDS011;54731;42.600;23.476;2023-04-25T03:37:05;8.10;;;6.10;;
67941;SDS011;54731;42.600;23.476;2023-04-25T03:39:30;7.73;;;5.63;;
67941;SDS011;54731;42.600;23.476;2023-04-25T03:41:56;10.20;;;4.57;;
67941;SDS011;54731;42.600;23.476;2023-04-25T03:44:21;5.53;;;4.68;;
67941;SDS011;54731;42.600;23.476;2023-04-25T03:46:46;5.50;;;4.90;;
67941;SDS011;54731;42.600;23.476;2023-04-25T03:49:11;5.57;;;4.70;;
67941;SDS011;54731;42.600;23.476;2023-04-25T03:51:37;5.90;;;4.33;;
67941;SDS011;54731;42.600;23.476;2023-04-25T03:54:02;10.33;;;7.63;;
67941;SDS011;54731;42.600;23.476;2023-04-25T03:56:27;15.63;;;10.17;;
67941;SDS011;54731;42.600;23.476;2023-04-25T03:58:53;198.07;;;18.33;;
67941;SDS011;54731;42.600;23.476;2023-04-25T04:01:18;44.20;;;11.93;;
67941;SDS011;54731;42.600;23.476;2023-04-25T04:03:43;21.77;;;11.43;;
67941;SDS011;54731;42.600;23.476;2023-04-25T04:06:09;19.73;;;11.82;;
67941;SDS011;54731;42.600;23.476;2023-04-25T04:08:34;25.80;;;14.63;;
67941;SDS011;54731;42.600;23.476;2023-04-25T04:10:59;31.27;;;13.77;;
67941;SDS011;54731;42.600;23.476;2023-04-25T04:13:25;23.37;;;13.87;;
67941;SDS011;54731;42.600;23.476;2023-04-25T04:15:51;24.42;;;13.82;;
67941;SDS011;54731;42.600;23.476;2023-04-25T04:18:16;25.33;;;15.07;;
67941;SDS011;54731;42.600;23.476;2023-04-25T04:20:42;24.07;;;14.40;;
67941;SDS011;54731;42.600;23.476;2023-04-25T04:23:07;19.93;;;13.03;;
67941;SDS011;54731;42.600;23.476;2023-04-25T04:25:32;19.97;;;11.13;;
67941;SDS011;54731;42.600;23.476;2023-04-25T04:27:57;17.77;;;11.30;;
67941;SDS011;54731;42.600;23.476;2023-04-25T04:30:23;18.60;;;12.30;;
67941;SDS011;54731;42.600;23.476;2023-04-25T04:32:50;20.17;;;12.90;;
67941;SDS011;54731;42.600;23.476;2023-04-25T04:35:15;17.15;;;10.63;;
67941;SDS011;54731;42.600;23.476;2023-04-25T04:37:41;19.77;;;10.80;;
67941;SDS011;54731;42.600;23.476;2023-04-25T04:40:06;16.57;;;10.90;;
67941;SDS011;54731;42.600;23.476;2023-04-25T04:42:32;16.30;;;9.63;;
67941;SDS011;54731;42.600;23.476;2023-04-25T04:44:58;13.77;;;8.87;;
67941;SDS011;54731;42.600;23.476;2023-04-25T04:47:23;14.17;;;9.00;;
67941;SDS011;54731;42.600;23.476;2023-04-25T04:49:48;14.02;;;8.85;;
67941;SDS011;54731;42.600;23.476;2023-04-25T04:52:14;14.93;;;9.53;;
67941;SDS011;54731;42.600;23.476;2023-04-25T04:54:39;13.13;;;9.43;;
67941;SDS011;54731;42.600;23.476;2023-04-25T04:57:04;15.53;;;9.40;;
67941;SDS011;54731;42.600;23.476;2023-04-25T04:59:29;18.53;;;11.87;;
67941;SDS011;54731;42.600;23.476;2023-04-25T05:01:55;63.63;;;12.47;;
67941;SDS011;54731;42.600;23.476;2023-04-25T05:04:20;17.40;;;11.50;;
67941;SDS011;54731;42.600;23.476;2023-04-25T05:06:45;17.63;;;11.00;;
67941;SDS011;54731;42.600;23.476;2023-04-25T05:09:11;17.03;;;11.00;;
67941;SDS011;54731;42.600;23.476;2023-04-25T05:11:36;17.67;;;10.43;;
67941;SDS011;54731;42.600;23.476;2023-04-25T05:14:01;19.45;;;12.50;;
67941;SDS011;54731;42.600;23.476;2023-04-25T05:16:27;15.63;;;10.47;;
67941;SDS011;54731;42.600;23.476;2023-04-25T05:18:52;17.37;;;11.00;;
67941;SDS011;54731;42.600;23.476;2023-04-25T05:21:20;15.88;;;10.30;;
67941;SDS011;54731;42.600;23.476;2023-04-25T05:23:46;20.40;;;11.90;;
67941;SDS011;54731;42.600;23.476;2023-04-25T05:26:11;20.63;;;12.60;;
67941;SDS011;54731;42.600;23.476;2023-04-25T05:28:36;15.67;;;10.57;;
67941;SDS011;54731;42.600;23.476;2023-04-25T05:31:01;27.37;;;8.90;;
67941;SDS011;54731;42.600;23.476;2023-04-25T05:33:28;16.95;;;8.43;;
67941;SDS011;54731;42.600;23.476;2023-04-25T05:35:54;12.97;;;8.77;;
67941;SDS011;54731;42.600;23.476;2023-04-25T05:38:19;10.07;;;7.37;;
67941;SDS011;54731;42.600;23.476;2023-04-25T05:40:44;13.70;;;10.07;;
67941;SDS011;54731;42.600;23.476;2023-04-25T05:43:10;17.83;;;11.33;;
67941;SDS011;54731;42.600;23.476;2023-04-25T05:45:35;19.63;;;12.70;;
67941;SDS011;54731;42.600;23.476;2023-04-25T05:48:00;16.48;;;10.57;;
67941;SDS011;54731;42.600;23.476;2023-04-25T05:50:26;14.43;;;11.07;;
67941;SDS011;54731;42.600;23.476;2023-04-25T05:52:51;15.80;;;8.97;;
67941;SDS011;54731;42.600;23.476;2023-04-25T05:55:17;17.37;;;8.80;;
67941;SDS011;54731;42.600;23.476;2023-04-25T05:57:42;10.90;;;7.83;;
67941;SDS011;54731;42.600;23.476;2023-04-25T06:00:11;10.73;;;8.25;;
67941;SDS011;54731;42.600;23.476;2023-04-25T06:02:38;21.17;;;15.03;;
67941;SDS011;54731;42.600;23.476;2023-04-25T06:05:03;27.23;;;18.10;;
67941;SDS011;54731;42.600;23.476;2023-04-25T06:07:29;23.70;;;14.82;;
67941;SDS011;54731;42.600;23.476;2023-04-25T06:09:54;21.40;;;14.37;;
67941;SDS011;54731;42.600;23.476;2023-04-25T06:12:20;87.72;;;43.78;;
67941;SDS011;54731;42.600;23.476;2023-04-25T06:14:45;40.67;;;22.27;;
67941;SDS011;54731;42.600;23.476;2023-04-25T06:17:10;21.03;;;12.37;;
67941;SDS011;54731;42.600;23.476;2023-04-25T06:19:35;21.90;;;11.50;;
67941;SDS011;54731;42.600;23.476;2023-04-25T06:22:01;16.43;;;9.93;;
67941;SDS011;54731;42.600;23.476;2023-04-25T06:24:27;20.63;;;11.52;;
67941;SDS011;54731;42.600;23.476;2023-04-25T06:26:52;15.40;;;10.45;;
67941;SDS011;54731;42.600;23.476;2023-04-25T06:29:18;16.17;;;10.27;;
67941;SDS011;54731;42.600;23.476;2023-04-25T06:31:45;14.38;;;9.07;;
67941;SDS011;54731;42.600;23.476;2023-04-25T06:34:10;16.87;;;7.77;;
67941;SDS011;54731;42.600;23.476;2023-04-25T06:36:35;9.67;;;7.20;;
67941;SDS011;54731;42.600;23.476;2023-04-25T06:39:01;8.32;;;6.50;;
67941;SDS011;54731;42.600;23.476;2023-04-25T06:41:26;11.67;;;7.70;;
67941;SDS011;54731;42.600;23.476;2023-04-25T06:43:51;14.83;;;9.77;;
67941;SDS011;54731;42.600;23.476;2023-04-25T06:46:16;11.80;;;8.63;;
67941;SDS011;54731;42.600;23.476;2023-04-25T06:48:42;12.87;;;8.77;;
67941;SDS011;54731;42.600;23.476;2023-04-25T06:51:07;14.10;;;8.90;;
67941;SDS011;54731;42.600;23.476;2023-04-25T06:53:32;11.33;;;8.93;;
67941;SDS011;54731;42.600;23.476;2023-04-25T06:55:58;9.80;;;7.97;;
67941;SDS011;54731;42.600;23.476;2023-04-25T06:58:23;9.33;;;7.10;;
67941;SDS011;54731;42.600;23.476;2023-04-25T07:00:48;11.17;;;6.87;;
67941;SDS011;54731;42.600;23.476;2023-04-25T07:03:14;9.93;;;7.60;;
67941;SDS011;54731;42.600;23.476;2023-04-25T07:05:39;11.17;;;8.37;;
67941;SDS011;54731;42.600;23.476;2023-04-25T07:08:04;13.13;;;8.43;;
67941;SDS011;54731;42.600;23.476;2023-04-25T07:10:30;12.90;;;7.37;;
67941;SDS011;54731;42.600;23.476;2023-04-25T07:12:55;8.43;;;6.70;;
67941;SDS011;54731;42.600;23.476;2023-04-25T07:15:20;7.50;;;5.73;;
67941;SDS011;54731;42.600;23.476;2023-04-25T07:17:45;8.77;;;4.80;;
67941;SDS011;54731;42.600;23.476;2023-04-25T07:20:11;6.77;;;4.20;;
67941;SDS011;54731;42.600;23.476;2023-04-25T07:22:36;6.15;;;4.28;;
67941;SDS011;54731;42.600;23.476;2023-04-25T07:25:02;7.33;;;4.87;;
67941;SDS011;54731;42.600;23.476;2023-04-25T07:27:27;6.87;;;5.23;;
67941;SDS011;54731;42.600;23.476;2023-04-25T07:29:52;6.03;;;4.20;;
67941;SDS011;54731;42.600;23.476;2023-04-25T07:32:18;5.10;;;3.60;;
67941;SDS011;54731;42.600;23.476;2023-04-25T07:34:43;4.63;;;3.20;;
67941;SDS011;54731;42.600;23.476;2023-04-25T07:37:08;6.50;;;4.30;;
67941;SDS011;54731;42.600;23.476;2023-04-25T07:39:34;5.90;;;4.83;;
67941;SDS011;54731;42.600;23.476;2023-04-25T07:41:59;10.07;;;5.93;;
67941;SDS011;54731;42.600;23.476;2023-04-25T07:44:24;13.07;;;6.73;;
67941;SDS011;54731;42.600;23.476;2023-04-25T07:46:49;10.47;;;6.07;;
67941;SDS011;54731;42.600;23.476;2023-04-25T07:49:15;14.13;;;7.53;;
67941;SDS011;54731;42.600;23.476;2023-04-25T07:51:40;9.33;;;5.73;;
67941;SDS011;54731;42.600;23.476;2023-04-25T07:54:06;9.05;;;6.38;;
67941;SDS011;54731;42.600;23.476;2023-04-25T07:56:31;9.90;;;6.07;;
67941;SDS011;54731;42.600;23.476;2023-04-25T07:58:56;12.73;;;7.27;;
67941;SDS011;54731;42.600;23.476;2023-04-25T08:01:22;11.60;;;6.50;;
67941;SDS011;54731;42.600;23.476;2023-04-25T08:03:47;11.17;;;5.87;;
67941;SDS011;54731;42.600;23.476;2023-04-25T08:06:12;11.13;;;6.07;;
67941;SDS011;54731;42.600;23.476;2023-04-25T08:08:38;9.57;;;6.50;;
67941;SDS011;54731;42.600;23.476;2023-04-25T08:11:03;8.50;;;6.80;;
67941;SDS011;54731;42.600;23.476;2023-04-25T08:13:28;9.15;;;5.68;;
67941;SDS011;54731;42.600;23.476;2023-04-25T08:15:55;8.25;;;5.55;;
67941;SDS011;54731;42.600;23.476;2023-04-25T08:18:20;12.37;;;6.00;;
67941;SDS011;54731;42.600;23.476;2023-04-25T08:20:47;9.47;;;6.67;;
67941;SDS011;54731;42.600;23.476;2023-04-25T08:23:12;8.90;;;6.35;;
67941;SDS011;54731;42.600;23.476;2023-04-25T08:25:40;6.97;;;5.60;;
67941;SDS011;54731;42.600;23.476;2023-04-25T08:28:08;5.20;;;3.75;;
67941;SDS011;54731;42.600;23.476;2023-04-25T08:30:33;9.53;;;5.40;;
67941;SDS011;54731;42.600;23.476;2023-04-25T08:32:59;8.10;;;6.13;;
67941;SDS011;54731;42.600;23.476;2023-04-25T08:35:24;8.70;;;6.35;;
67941;SDS011;54731;42.600;23.476;2023-04-25T08:37:49;11.80;;;8.00;;
67941;SDS011;54731;42.600;23.476;2023-04-25T08:40:15;8.07;;;5.93;;
67941;SDS011;54731;42.600;23.476;2023-04-25T08:42:43;8.07;;;5.63;;
67941;SDS011;54731;42.600;23.476;2023-04-25T08:45:10;6.63;;;5.25;;
67941;SDS011;54731;42.600;23.476;2023-04-25T08:47:35;5.03;;;3.57;;
67941;SDS011;54731;42.600;23.476;2023-04-25T08:50:03;3.83;;;3.20;;
67941;SDS011;54731;42.600;23.476;2023-04-25T08:52:30;3.30;;;2.83;;
67941;SDS011;54731;42.600;23.476;2023-04-25T08:55:01;5.10;;;3.20;;
67941;SDS011;54731;42.600;23.476;2023-04-25T08:57:26;7.77;;;3.13;;
67941;SDS011;54731;42.600;23.476;2023-04-25T08:59:52;3.37;;;2.30;;
67941;SDS011;54731;42.600;23.476;2023-04-25T09:02:18;4.63;;;2.40;;
67941;SDS011;54731;42.600;23.476;2023-04-25T09:04:43;3.10;;;2.20;;
67941;SDS011;54731;42.600;23.476;2023-04-25T09:07:09;3.47;;;2.80;;
67941;SDS011;54731;42.600;23.476;2023-04-25T09:09:34;5.70;;;2.90;;
67941;SDS011;54731;42.600;23.476;2023-04-25T09:11:59;6.03;;;2.67;;
67941;SDS011;54731;42.600;23.476;2023-04-25T09:14:25;4.23;;;3.20;;
67941;SDS011;54731;42.600;23.476;2023-04-25T09:21:48;14.13;;;5.65;;
67941;SDS011;54731;42.600;23.476;2023-04-25T09:24:14;3.72;;;2.88;;
67941;SDS011;54731;42.600;23.476;2023-04-25T09:26:40;5.60;;;3.97;;
67941;SDS011;54731;42.600;23.476;2023-04-25T09:29:05;23.90;;;10.90;;
67941;SDS011;54731;42.600;23.476;2023-04-25T09:31:31;22.30;;;9.80;;
67941;SDS011;54731;42.600;23.476;2023-04-25T09:34:01;6.55;;;3.97;;
67941;SDS011;54731;42.600;23.476;2023-04-25T09:36:27;5.95;;;4.03;;
67941;SDS011;54731;42.600;23.476;2023-04-25T09:38:52;7.00;;;4.33;;
67941;SDS011;54731;42.600;23.476;2023-04-25T09:41:24;6.38;;;3.42;;
67941;SDS011;54731;42.600;23.476;2023-04-25T09:43:50;5.88;;;3.60;;
67941;SDS011;54731;42.600;23.476;2023-04-25T09:46:15;4.43;;;3.60;;
67941;SDS011;54731;42.600;23.476;2023-04-25T09:48:41;6.68;;;3.10;;
67941;SDS011;54731;42.600;23.476;2023-04-25T09:51:14;4.22;;;3.55;;
67941;SDS011;54731;42.600;23.476;2023-04-25T09:53:40;4.57;;;3.00;;
67941;SDS011;54731;42.600;23.476;2023-04-25T09:56:10;6.10;;;3.00;;
67941;SDS011;54731;42.600;23.476;2023-04-25T09:58:36;6.05;;;3.45;;
67941;SDS011;54731;42.600;23.476;2023-04-25T10:01:04;7.33;;;4.07;;
67941;SDS011;54731;42.600;23.476;2023-04-25T10:03:31;8.45;;;3.80;;
67941;SDS011;54731;42.600;23.476;2023-04-25T10:06:01;6.07;;;3.78;;
67941;SDS011;54731;42.600;23.476;2023-04-25T10:08:31;3.08;;;1.40;;
67941;SDS011;54731;42.600;23.476;2023-04-25T10:10:59;2.45;;;1.45;;
67941;SDS011;54731;42.600;23.476;2023-04-25T10:13:26;1.40;;;1.03;;
67941;SDS011;54731;42.600;23.476;2023-04-25T10:15:53;3.35;;;0.98;;
67941;SDS011;54731;42.600;23.476;2023-04-25T10:18:19;2.42;;;1.35;;
67941;SDS011;54731;42.600;23.476;2023-04-25T10:20:44;1.00;;;0.67;;
67941;SDS011;54731;42.600;23.476;2023-04-25T10:23:13;2.28;;;1.40;;
67941;SDS011;54731;42.600;23.476;2023-04-25T10:25:39;3.10;;;1.17;;
67941;SDS011;54731;42.600;23.476;2023-04-25T10:28:06;3.28;;;0.85;;
67941;SDS011;54731;42.600;23.476;2023-04-25T10:30:31;3.33;;;0.80;;
67941;SDS011;54731;42.600;23.476;2023-04-25T10:32:56;1.87;;;1.30;;
67941;SDS011;54731;42.600;23.476;2023-04-25T10:35:24;1.42;;;1.00;;
67941;SDS011;54731;42.600;23.476;2023-04-25T10:40:35;5.32;;;2.15;;
67941;SDS011;54731;42.600;23.476;2023-04-25T10:48:52;5.75;;;3.38;;
67941;SDS011;54731;42.600;23.476;2023-04-25T10:51:25;5.78;;;2.33;;
67941;SDS011;54731;42.600;23.476;2023-04-25T10:56:22;3.85;;;2.60;;
67941;SDS011;54731;42.600;23.476;2023-04-25T10:58:50;4.67;;;3.37;;
67941;SDS011;54731;42.600;23.476;2023-04-25T11:01:15;4.15;;;2.67;;
67941;SDS011;54731;42.600;23.476;2023-04-25T11:03:45;4.47;;;1.67;;
67941;SDS011;54731;42.600;23.476;2023-04-25T11:06:22;8.75;;;1.98;;
67941;SDS011;54731;42.600;23.476;2023-04-25T11:08:51;3.55;;;1.60;;
67941;SDS011;54731;42.600;23.476;2023-04-25T11:11:17;5.10;;;2.10;;
67941;SDS011;54731;42.600;23.476;2023-04-25T11:13:43;6.57;;;2.03;;
67941;SDS011;54731;42.600;23.476;2023-04-25T11:16:08;5.65;;;1.08;;
67941;SDS011;54731;42.600;23.476;2023-04-25T11:18:34;3.93;;;1.10;;
67941;SDS011;54731;42.600;23.476;2023-04-25T11:20:59;1.80;;;0.83;;
67941;SDS011;54731;42.600;23.476;2023-04-25T11:23:25;2.60;;;0.85;;
67941;SDS011;54731;42.600;23.476;2023-04-25T11:25:51;1.90;;;0.70;;
67941;SDS011;54731;42.600;23.476;2023-04-25T11:28:20;2.92;;;1.20;;
67941;SDS011;54731;42.600;23.476;2023-04-25T11:30:49;5.37;;;2.43;;
67941;SDS011;54731;42.600;23.476;2023-04-25T11:33:14;6.50;;;3.55;;
67941;SDS011;54731;42.600;23.476;2023-04-25T11:35:40;9.87;;;2.70;;
67941;SDS011;54731;42.600;23.476;2023-04-25T11:38:06;3.55;;;1.70;;
67941;SDS011;54731;42.600;23.476;2023-04-25T11:40:31;4.93;;;3.03;;
67941;SDS011;54731;42.600;23.476;2023-04-25T11:42:56;10.53;;;2.90;;
67941;SDS011;54731;42.600;23.476;2023-04-25T11:45:25;5.63;;;1.90;;
67941;SDS011;54731;42.600;23.476;2023-04-25T11:47:50;5.40;;;2.00;;
67941;SDS011;54731;42.600;23.476;2023-04-25T11:50:16;4.30;;;1.85;;
67941;SDS011;54731;42.600;23.476;2023-04-25T11:52:45;5.57;;;1.90;;
67941;SDS011;54731;42.600;23.476;2023-04-25T11:55:17;3.03;;;1.33;;
67941;SDS011;54731;42.600;23.476;2023-04-25T11:57:45;1.87;;;1.10;;
67941;SDS011;54731;42.600;23.476;2023-04-25T12:00:13;2.05;;;1.05;;
67941;SDS011;54731;42.600;23.476;2023-04-25T12:02:42;2.60;;;1.23;;
67941;SDS011;54731;42.600;23.476;2023-04-25T12:05:09;3.60;;;1.33;;
67941;SDS011;54731;42.600;23.476;2023-04-25T12:07:35;7.90;;;3.67;;
67941;SDS011;54731;42.600;23.476;2023-04-25T12:10:04;4.67;;;2.30;;
67941;SDS011;54731;42.600;23.476;2023-04-25T12:12:35;5.25;;;2.47;;
67941;SDS011;54731;42.600;23.476;2023-04-25T12:15:13;4.50;;;2.33;;
67941;SDS011;54731;42.600;23.476;2023-04-25T12:17:39;3.80;;;1.43;;
67941;SDS011;54731;42.600;23.476;2023-04-25T12:20:08;3.38;;;0.70;;
67941;SDS011;54731;42.600;23.476;2023-04-25T12:22:35;3.55;;;1.20;;
67941;SDS011;54731;42.600;23.476;2023-04-25T12:25:00;3.55;;;0.70;;
67941;SDS011;54731;42.600;23.476;2023-04-25T12:27:26;4.67;;;0.77;;
67941;SDS011;54731;42.600;23.476;2023-04-25T12:29:52;3.87;;;1.40;;
67941;SDS011;54731;42.600;23.476;2023-04-25T12:32:21;20.05;;;9.73;;
67941;SDS011;54731;42.600;23.476;2023-04-25T12:34:46;5.40;;;1.53;;
67941;SDS011;54731;42.600;23.476;2023-04-25T12:37:12;3.93;;;0.50;;
67941;SDS011;54731;42.600;23.476;2023-04-25T12:39:37;1.08;;;0.50;;
67941;SDS011;54731;42.600;23.476;2023-04-25T12:42:02;1.13;;;0.30;;
67941;SDS011;54731;42.600;23.476;2023-04-25T12:44:28;1.10;;;0.40;;
67941;SDS011;54731;42.600;23.476;2023-04-25T12:46:54;1.20;;;0.28;;
67941;SDS011;54731;42.600;23.476;2023-04-25T12:49:19;1.77;;;0.30;;
67941;SDS011;54731;42.600;23.476;2023-04-25T12:51:44;0.70;;;0.40;;
67941;SDS011;54731;42.600;23.476;2023-04-25T12:54:10;1.53;;;0.57;;
67941;SDS011;54731;42.600;23.476;2023-04-25T12:56:35;2.07;;;0.70;;
67941;SDS011;54731;42.600;23.476;2023-04-25T12:59:00;0.80;;;0.40;;
67941;SDS011;54731;42.600;23.476;2023-04-25T13:01:26;3.70;;;0.40;;
67941;SDS011;54731;42.600;23.476;2023-04-25T13:03:51;0.90;;;0.40;;
67941;SDS011;54731;42.600;23.476;2023-04-25T13:06:17;0.88;;;0.40;;
67941;SDS011;54731;42.600;23.476;2023-04-25T13:08:43;1.80;;;1.02;;
67941;SDS011;54731;42.600;23.476;2023-04-25T13:11:08;2.40;;;0.83;;
67941;SDS011;54731;42.600;23.476;2023-04-25T13:13:34;1.70;;;1.07;;
67941;SDS011;54731;42.600;23.476;2023-04-25T13:16:03;1.90;;;0.60;;
67941;SDS011;54731;42.600;23.476;2023-04-25T13:18:29;1.17;;;0.50;;
67941;SDS011;54731;42.600;23.476;2023-04-25T13:20:55;2.77;;;0.53;;
67941;SDS011;54731;42.600;23.476;2023-04-25T13:23:21;3.65;;;1.00;;
67941;SDS011;54731;42.600;23.476;2023-04-25T13:25:47;3.17;;;0.70;;
67941;SDS011;54731;42.600;23.476;2023-04-25T13:28:12;1.45;;;0.90;;
67941;SDS011;54731;42.600;23.476;2023-04-25T13:30:38;1.70;;;0.75;;
67941;SDS011;54731;42.600;23.476;2023-04-25T13:33:04;2.67;;;0.45;;
67941;SDS011;54731;42.600;23.476;2023-04-25T13:35:30;2.30;;;0.77;;
67941;SDS011;54731;42.600;23.476;2023-04-25T13:37:56;1.90;;;0.60;;
67941;SDS011;54731;42.600;23.476;2023-04-25T13:40:21;1.10;;;0.35;;
67941;SDS011;54731;42.600;23.476;2023-04-25T13:42:47;1.33;;;0.60;;
67941;SDS011;54731;42.600;23.476;2023-04-25T13:45:12;1.80;;;1.00;;
67941;SDS011;54731;42.600;23.476;2023-04-25T13:47:37;1.33;;;0.63;;
67941;SDS011;54731;42.600;23.476;2023-04-25T13:50:03;2.00;;;0.60;;
67941;SDS011;54731;42.600;23.476;2023-04-25T13:52:29;2.13;;;0.80;;
67941;SDS011;54731;42.600;23.476;2023-04-25T13:54:55;2.33;;;0.70;;
67941;SDS011;54731;42.600;23.476;2023-04-25T13:57:20;1.83;;;0.90;;
67941;SDS011;54731;42.600;23.476;2023-04-25T13:59:45;3.60;;;1.53;;
67941;SDS011;54731;42.600;23.476;2023-04-25T14:02:11;3.53;;;1.90;;
67941;SDS011;54731;42.600;23.476;2023-04-25T14:04:36;1.65;;;0.60;;
67941;SDS011;54731;42.600;23.476;2023-04-25T14:07:02;1.63;;;0.70;;
67941;SDS011;54731;42.600;23.476;2023-04-25T14:09:28;2.45;;;1.27;;
67941;SDS011;54731;42.600;23.476;2023-04-25T14:11:54;1.77;;;1.25;;
67941;SDS011;54731;42.600;23.476;2023-04-25T14:14:20;1.70;;;1.30;;
67941;SDS011;54731;42.600;23.476;2023-04-25T14:16:47;2.00;;;0.83;;
67941;SDS011;54731;42.600;23.476;2023-04-25T14:19:13;3.38;;;1.33;;
67941;SDS011;54731;42.600;23.476;2023-04-25T14:21:38;1.40;;;0.43;;
67941;SDS011;54731;42.600;23.476;2023-04-25T14:24:03;2.87;;;0.40;;
67941;SDS011;54731;42.600;23.476;2023-04-25T14:26:29;0.40;;;0.30;;
67941;SDS011;54731;42.600;23.476;2023-04-25T14:28:54;10.57;;;5.20;;
67941;SDS011;54731;42.600;23.476;2023-04-25T14:31:20;6.07;;;3.57;;
67941;SDS011;54731;42.600;23.476;2023-04-25T14:33:45;13.03;;;6.00;;
67941;SDS011;54731;42.600;23.476;2023-04-25T14:36:10;26.10;;;11.93;;